Time;durP1;ratioP1;P1;durP2;ratioP2;P2;SDS_P1;SDS_P2;PMS_P1;PMS_P2;Temp;Humidity;BMP_temperature;BMP_pressure;BME280_temperature;BME280_humidity;BME280_pressure;Samples;Min_cycle;Max_cycle;Signal;HPM_P1;HPM_P2
2022/05/03 00:00:12;;;;;;;15.07;8.55;;;12.90;99.90;;;;;;6689660;88;20649;-79
2022/05/03 00:10:20;;;;;;;14.15;8.38;;;12.70;99.90;;;;;;6695457;88;20193;-78
2022/05/03 00:20:21;;;;;;;11.73;8.60;;;12.70;99.90;;;;;;6693488;88;20796;-79
2022/05/03 00:30:22;;;;;;;12.18;8.18;;;12.70;99.90;;;;;;6693240;88;20287;-79
2022/05/03 00:40:24;;;;;;;15.40;8.52;;;12.70;99.90;;;;;;6692605;88;20662;-79
2022/05/03 00:50:34;;;;;;;13.50;9.05;;;12.60;99.90;;;;;;6692036;88;20202;-78
2022/05/03 01:00:46;;;;;;;16.10;9.68;;;12.50;99.90;;;;;;6692792;88;20221;-79
2022/05/03 01:11:01;;;;;;;17.45;10.55;;;12.40;99.90;;;;;;6701430;88;20218;-78
2022/05/03 01:21:04;;;;;;;16.80;10.10;;;12.30;99.90;;;;;;6709845;88;20209;-79
2022/05/03 01:31:10;;;;;;;16.27;10.68;;;12.20;99.90;;;;;;6707425;88;20205;-79
2022/05/03 01:41:22;;;;;;;16.85;10.77;;;12.10;99.90;;;;;;6705485;88;20233;-79
2022/05/03 01:51:27;;;;;;;16.55;10.90;;;12.10;99.90;;;;;;6708316;88;20362;-79
2022/05/03 02:01:40;;;;;;;14.75;10.50;;;12.20;99.90;;;;;;6707682;88;20691;-78
2022/05/03 02:11:47;;;;;;;16.45;10.60;;;12.10;99.90;;;;;;6703732;88;20236;-78
2022/05/03 02:22:25;;;;;;;20.80;11.38;;;12.20;99.90;;;;;;6703246;88;20217;-79
2022/05/03 02:32:33;;;;;;;16.00;11.10;;;12.00;99.90;;;;;;6708037;88;20195;-79
2022/05/03 02:42:34;;;;;;;17.42;11.12;;;11.80;99.90;;;;;;6690962;88;20199;-78
2022/05/03 02:53:12;;;;;;;19.45;11.45;;;11.70;99.90;;;;;;6692138;88;20219;-78
2022/05/03 03:03:36;;;;;;;18.20;11.00;;;11.50;99.90;;;;;;6687661;88;20316;-78
2022/05/03 03:13:58;;;;;;;15.20;10.52;;;11.40;99.90;;;;;;6690164;88;20208;-79
2022/05/03 03:24:00;;;;;;;19.80;11.45;;;11.40;99.90;;;;;;6690111;89;20167;-79
2022/05/03 03:34:01;;;;;;;18.37;11.15;;;11.10;99.90;;;;;;6690451;89;20219;-78
2022/05/03 03:44:05;;;;;;;17.95;11.85;;;11.10;99.90;;;;;;6690432;89;20202;-80
2022/05/03 03:54:06;;;;;;;18.37;11.43;;;11.00;99.90;;;;;;6689784;89;20342;-79
2022/05/03 04:04:08;;;;;;;19.12;11.70;;;11.00;99.90;;;;;;6700534;88;20194;-79
2022/05/03 04:14:08;;;;;;;21.67;11.98;;;10.80;99.90;;;;;;6723317;88;20211;-79
2022/05/03 04:24:09;;;;;;;19.77;11.73;;;10.90;99.90;;;;;;6723410;88;20197;-79
2022/05/03 04:34:10;;;;;;;20.58;10.95;;;10.80;99.90;;;;;;6725557;88;20869;-79
2022/05/03 04:44:10;;;;;;;17.00;11.12;;;10.80;99.90;;;;;;6714162;88;20683;-79
2022/05/03 04:54:52;;;;;;;16.08;10.52;;;10.50;99.90;;;;;;6703491;78;20236;-78
2022/05/03 05:04:52;;;;;;;19.05;11.05;;;10.40;99.90;;;;;;6739703;88;20277;-77
2022/05/03 05:14:52;;;;;;;17.30;10.07;;;10.40;99.90;;;;;;6734797;88;21273;-77
2022/05/03 05:24:53;;;;;;;19.85;10.45;;;10.40;99.90;;;;;;6738155;88;21035;-78
2022/05/03 05:34:53;;;;;;;17.67;10.45;;;10.30;99.90;;;;;;6738521;88;20192;-76
2022/05/03 05:44:54;;;;;;;16.65;9.65;;;10.20;99.90;;;;;;6737627;88;20204;-76
2022/05/03 05:54:55;;;;;;;18.23;10.60;;;10.30;99.90;;;;;;6738885;88;20217;-79
2022/05/03 06:04:55;;;;;;;15.10;9.93;;;10.20;99.90;;;;;;6738280;88;20501;-77
2022/05/03 06:14:56;;;;;;;19.25;9.88;;;10.10;99.90;;;;;;6692490;88;20206;-76
2022/05/03 06:24:56;;;;;;;19.20;11.23;;;10.20;99.90;;;;;;6652004;89;20686;-78
2022/05/03 06:34:57;;;;;;;16.90;10.23;;;10.50;99.90;;;;;;6652986;89;20588;-77
2022/05/03 06:44:59;;;;;;;16.17;9.63;;;10.90;99.90;;;;;;6709334;88;20194;-76
2022/05/03 06:55:00;;;;;;;18.23;10.55;;;11.40;99.90;;;;;;6720206;88;20205;-77
2022/05/03 07:05:02;;;;;;;16.52;10.85;;;11.70;99.90;;;;;;6716850;88;20214;-77
2022/05/03 07:15:08;;;;;;;19.73;11.00;;;11.70;99.90;;;;;;6722357;88;20217;-77
2022/05/03 07:25:08;;;;;;;17.17;9.73;;;12.30;99.90;;;;;;6723049;88;20182;-77
2022/05/03 07:35:10;;;;;;;19.62;11.00;;;13.30;99.90;;;;;;6733714;88;20758;-77
2022/05/03 07:45:11;;;;;;;15.15;10.05;;;13.40;99.90;;;;;;6726946;88;20301;-77
2022/05/03 07:55:11;;;;;;;20.00;10.43;;;14.70;99.90;;;;;;6722786;88;20226;-78
2022/05/03 08:05:12;;;;;;;16.48;10.27;;;15.10;99.90;;;;;;6732092;88;20241;-78
2022/05/03 08:15:12;;;;;;;14.55;10.45;;;15.30;99.90;;;;;;6733022;88;20317;-78
2022/05/03 08:25:13;;;;;;;18.73;11.30;;;16.40;99.90;;;;;;6733435;88;20388;-77
2022/05/03 08:35:14;;;;;;;16.50;10.32;;;16.40;99.90;;;;;;6729692;88;20208;-77
2022/05/03 08:45:15;;;;;;;14.90;9.98;;;16.80;99.90;;;;;;6733298;88;20269;-76
2022/05/03 08:55:15;;;;;;;17.80;9.75;;;18.30;99.90;;;;;;6726483;88;20910;-77
2022/05/03 09:05:16;;;;;;;17.83;9.82;;;18.60;99.00;;;;;;6727666;88;20193;-79
2022/05/03 09:15:33;;;;;;;12.70;8.88;;;18.60;98.20;;;;;;6728648;88;20227;-80
2022/05/03 09:25:34;;;;;;;15.95;9.27;;;18.20;99.00;;;;;;6729010;88;20197;-76
2022/05/03 09:35:36;;;;;;;14.43;8.80;;;18.70;98.40;;;;;;6734385;88;20307;-79
2022/05/03 09:45:37;;;;;;;13.50;8.73;;;19.40;97.40;;;;;;6742059;88;20223;-77
2022/05/03 09:55:40;;;;;;;13.88;8.45;;;20.70;95.10;;;;;;6732901;88;20204;-77
2022/05/03 10:05:45;;;;;;;16.87;8.60;;;21.10;93.20;;;;;;6736560;88;20182;-79
2022/05/03 10:26:10;;;;;;;12.63;8.33;;;21.90;92.00;;;;;;6728242;88;20200;-78
2022/05/03 10:36:29;;;;;;;13.57;7.95;;;21.50;90.70;;;;;;6712658;88;20235;-78
2022/05/03 10:46:33;;;;;;;12.00;8.40;;;22.50;90.00;;;;;;6726785;88;20691;-77
2022/05/03 10:57:14;;;;;;;11.73;7.75;;;22.90;86.50;;;;;;6711606;77;20185;-79
2022/05/03 11:07:23;;;;;;;12.02;8.10;;;23.00;85.80;;;;;;6642983;88;20208;-79
2022/05/03 11:17:23;;;;;;;11.90;8.38;;;23.20;82.80;;;;;;6644715;89;20194;-80
2022/05/03 11:27:25;;;;;;;12.57;7.82;;;22.90;80.70;;;;;;6635710;89;20318;-76
2022/05/03 11:37:26;;;;;;;12.30;8.30;;;24.70;76.60;;;;;;6653936;88;20176;-77
2022/05/03 11:47:27;;;;;;;15.77;7.60;;;23.50;75.60;;;;;;6645693;88;20217;-79
2022/05/03 11:57:36;;;;;;;11.05;7.37;;;23.30;75.90;;;;;;6653220;88;20298;-78
2022/05/03 12:07:38;;;;;;;11.70;8.10;;;24.20;73.90;;;;;;6650763;88;20270;-78
2022/05/03 12:17:55;;;;;;;12.63;8.00;;;22.90;73.20;;;;;;6652088;88;20204;-78
2022/05/03 12:28:02;;;;;;;12.00;8.25;;;23.50;73.80;;;;;;6672438;88;20299;-78
2022/05/03 12:38:29;;;;;;;11.77;8.30;;;24.90;69.60;;;;;;6649336;89;20274;-78
2022/05/03 12:48:33;;;;;;;13.10;8.07;;;23.60;70.90;;;;;;6661170;88;20174;-79
2022/05/03 12:58:34;;;;;;;12.15;7.68;;;24.50;68.80;;;;;;6651975;88;20300;-78
2022/05/03 13:08:34;;;;;;;12.60;7.95;;;25.30;68.90;;;;;;6640700;88;20192;-78
2022/05/03 13:18:35;;;;;;;17.37;8.45;;;25.70;66.90;;;;;;6651414;88;20331;-78
2022/05/03 13:28:36;;;;;;;11.88;7.97;;;25.80;65.70;;;;;;6645958;88;20206;-77
2022/05/03 13:48:55;;;;;;;14.05;8.30;;;26.60;64.10;;;;;;6641810;89;20698;-78
2022/05/03 13:58:56;;;;;;;11.27;7.37;;;26.40;63.50;;;;;;6680699;88;20256;-78
2022/05/03 14:08:56;;;;;;;16.65;9.50;;;26.40;64.00;;;;;;6634576;89;20224;-79
2022/05/03 14:19:01;;;;;;;12.18;7.30;;;25.50;61.50;;;;;;6711444;88;20209;-78
2022/05/03 14:29:01;;;;;;;9.02;7.62;;;26.30;62.70;;;;;;6686609;88;20764;-78
2022/05/03 14:39:03;;;;;;;10.27;7.30;;;26.30;62.20;;;;;;6651741;89;20585;-78
2022/05/03 14:49:04;;;;;;;14.10;7.55;;;25.90;61.10;;;;;;6648532;88;20902;-78
2022/05/03 15:09:24;;;;;;;11.25;6.62;;;25.60;60.80;;;;;;6646598;89;20194;-77
2022/05/03 15:19:25;;;;;;;10.77;6.65;;;24.00;62.20;;;;;;6639268;89;20196;-77
2022/05/03 15:29:25;;;;;;;11.98;7.03;;;24.00;62.60;;;;;;6649262;88;20185;-77
2022/05/03 15:39:26;;;;;;;10.27;6.53;;;24.00;61.60;;;;;;6650981;88;20736;-77
2022/05/03 15:49:33;;;;;;;9.77;6.00;;;24.10;61.30;;;;;;6643626;89;20242;-78
2022/05/03 15:59:33;;;;;;;8.05;5.78;;;24.00;61.00;;;;;;6650996;89;20208;-77
2022/05/03 16:09:34;;;;;;;10.23;6.03;;;23.60;62.20;;;;;;6650184;89;20227;-77
2022/05/03 16:19:37;;;;;;;8.10;5.43;;;23.30;62.40;;;;;;6645710;88;20223;-77
2022/05/03 16:29:37;;;;;;;8.82;5.20;;;23.20;62.60;;;;;;6648565;88;20189;-77
2022/05/03 16:49:57;;;;;;;7.82;4.75;;;22.60;63.00;;;;;;6637430;89;20196;-78
2022/05/03 17:00:39;;;;;;;7.18;4.60;;;22.40;63.20;;;;;;6688368;78;20341;-79
2022/05/03 17:10:40;;;;;;;6.72;4.70;;;22.00;63.90;;;;;;6660325;88;20204;-78
2022/05/03 17:20:40;;;;;;;7.57;5.18;;;21.90;63.30;;;;;;6646577;89;20567;-78
2022/05/03 17:30:41;;;;;;;8.73;5.00;;;22.80;62.10;;;;;;6644211;89;20231;-79
2022/05/03 17:40:42;;;;;;;8.40;4.70;;;23.30;60.80;;;;;;6636930;89;20203;-78
2022/05/03 17:50:42;;;;;;;8.70;4.80;;;22.50;62.00;;;;;;6636995;88;20625;-78
2022/05/03 18:00:43;;;;;;;8.05;4.57;;;21.30;63.50;;;;;;6647898;88;21474;-78
2022/05/03 18:10:43;;;;;;;6.82;4.62;;;20.70;64.10;;;;;;6631134;88;20209;-78
2022/05/03 18:20:45;;;;;;;8.45;4.00;;;19.90;65.70;;;;;;6630325;89;20192;-78
2022/05/03 18:30:45;;;;;;;7.43;4.50;;;19.20;68.10;;;;;;6655611;88;20330;-78
2022/05/03 18:40:46;;;;;;;7.20;3.70;;;18.30;69.90;;;;;;6646677;89;20651;-78
2022/05/03 18:50:47;;;;;;;6.57;3.75;;;17.90;71.50;;;;;;6647587;89;20732;-80
2022/05/03 19:00:49;;;;;;;6.57;3.83;;;17.60;72.50;;;;;;6645256;89;20248;-78
2022/05/03 19:10:50;;;;;;;8.15;3.80;;;17.30;74.10;;;;;;6638970;89;20208;-81
2022/05/03 19:20:51;;;;;;;7.78;3.60;;;16.90;75.60;;;;;;6634439;89;20634;-77
2022/05/03 19:30:52;;;;;;;9.20;3.70;;;16.50;77.60;;;;;;6629962;89;20628;-77
2022/05/03 19:40:53;;;;;;;7.03;3.60;;;16.10;79.30;;;;;;6631605;89;20216;-78
2022/05/03 19:50:54;;;;;;;6.72;3.70;;;15.70;81.00;;;;;;6647937;88;20709;-79
2022/05/03 20:00:54;;;;;;;7.35;3.87;;;15.40;82.20;;;;;;6638743;89;20216;-79
2022/05/03 20:10:55;;;;;;;7.90;3.72;;;15.20;83.80;;;;;;6659615;88;20197;-77
2022/05/03 20:20:56;;;;;;;8.48;3.75;;;15.00;85.30;;;;;;6637723;89;20184;-78
2022/05/03 20:31:00;;;;;;;6.57;4.00;;;14.80;87.00;;;;;;6637936;89;20236;-77
2022/05/03 20:41:00;;;;;;;7.22;3.80;;;14.60;89.90;;;;;;6654961;88;20180;-77
2022/05/03 20:51:01;;;;;;;5.97;3.50;;;14.60;91.20;;;;;;6654281;89;20213;-77
2022/05/03 21:11:21;;;;;;;6.32;3.58;;;14.60;92.80;;;;;;6639276;89;20656;-78
2022/05/03 21:21:21;;;;;;;7.13;4.00;;;14.50;93.80;;;;;;6651569;88;20214;-78
2022/05/03 21:31:25;;;;;;;9.90;3.85;;;14.20;94.90;;;;;;6638444;89;21063;-78
2022/05/03 21:41:26;;;;;;;6.25;3.70;;;13.90;96.50;;;;;;6652612;88;20181;-79
2022/05/03 21:51:27;;;;;;;6.12;3.55;;;13.80;98.20;;;;;;6636993;89;20314;-78
2022/05/03 22:01:27;;;;;;;7.32;4.00;;;13.50;99.90;;;;;;6651030;88;20253;-78
2022/05/03 22:11:28;;;;;;;7.93;4.75;;;13.30;99.90;;;;;;6669564;88;20216;-78
2022/05/03 22:21:28;;;;;;;6.85;4.12;;;13.10;99.90;;;;;;6670525;88;20200;-78
2022/05/03 22:31:29;;;;;;;7.65;4.65;;;13.00;99.90;;;;;;6656451;89;20256;-78
2022/05/03 22:41:29;;;;;;;7.32;4.50;;;12.90;99.90;;;;;;6661561;89;20191;-79
2022/05/03 23:01:40;;;;;;;8.35;5.53;;;12.70;99.90;;;;;;6748760;88;20169;-78
2022/05/03 23:11:40;;;;;;;9.25;5.78;;;12.50;99.90;;;;;;6757301;88;20243;-81
2022/05/03 23:21:41;;;;;;;9.48;6.00;;;12.50;99.90;;;;;;6738200;88;20252;-82
2022/05/03 23:31:41;;;;;;;11.77;6.68;;;12.40;99.90;;;;;;6754267;88;20215;-79
2022/05/03 23:41:42;;;;;;;10.13;7.40;;;12.20;99.90;;;;;;6754332;88;20230;-80
2022/05/03 23:51:43;;;;;;;11.55;7.55;;;12.10;99.90;;;;;;6750162;88;20506;-81
